sensor_id;sensor_type;location;lat;lon;timestamp;temperature;humidity
20463;DHT22;10390;53.566;9.980;2023-09-12T00:01:31;32.60;1.00
20463;DHT22;10390;53.566;9.980;2023-09-12T00:03:58;32.50;1.00
20463;DHT22;10390;53.566;9.980;2023-09-12T00:06:24;32.50;1.00
20463;DHT22;10390;53.566;9.980;2023-09-12T00:08:50;32.50;1.00
20463;DHT22;10390;53.566;9.980;2023-09-12T00:11:16;32.50;1.00
20463;DHT22;10390;53.566;9.980;2023-09-12T00:13:42;32.50;1.00
20463;DHT22;10390;53.566;9.980;2023-09-12T00:16:08;32.50;1.00
20463;DHT22;10390;53.566;9.980;2023-09-12T00:18:39;32.50;1.00
20463;DHT22;10390;53.566;9.980;2023-09-12T00:21:05;32.50;1.00
20463;DHT22;10390;53.566;9.980;2023-09-12T00:23:31;32.50;1.00
20463;DHT22;10390;53.566;9.980;2023-09-12T00:25:57;32.40;1.00
20463;DHT22;10390;53.566;9.980;2023-09-12T00:28:23;32.40;1.00
20463;DHT22;10390;53.566;9.980;2023-09-12T00:30:49;32.50;1.00
20463;DHT22;10390;53.566;9.980;2023-09-12T00:33:15;32.50;1.00
20463;DHT22;10390;53.566;9.980;2023-09-12T00:35:40;32.50;1.00
20463;DHT22;10390;53.566;9.980;2023-09-12T00:38:06;32.50;1.00
20463;DHT22;10390;53.566;9.980;2023-09-12T00:40:33;32.40;1.00
20463;DHT22;10390;53.566;9.980;2023-09-12T00:42:59;32.40;1.00
20463;DHT22;10390;53.566;9.980;2023-09-12T00:45:25;32.40;1.00
20463;DHT22;10390;53.566;9.980;2023-09-12T00:47:51;32.40;1.00
20463;DHT22;10390;53.566;9.980;2023-09-12T00:50:18;32.40;1.00
20463;DHT22;10390;53.566;9.980;2023-09-12T00:52:45;32.40;1.00
20463;DHT22;10390;53.566;9.980;2023-09-12T00:55:11;32.40;1.00
20463;DHT22;10390;53.566;9.980;2023-09-12T00:57:37;32.40;1.00
20463;DHT22;10390;53.566;9.980;2023-09-12T01:00:03;32.40;1.00
20463;DHT22;10390;53.566;9.980;2023-09-12T01:02:41;32.40;1.00
20463;DHT22;10390;53.566;9.980;2023-09-12T01:05:08;32.40;1.00
20463;DHT22;10390;53.566;9.980;2023-09-12T01:07:36;32.40;1.00
20463;DHT22;10390;53.566;9.980;2023-09-12T01:10:02;32.40;1.00
20463;DHT22;10390;53.566;9.980;2023-09-12T01:12:29;32.40;1.00
20463;DHT22;10390;53.566;9.980;2023-09-12T01:14:55;32.40;1.00
20463;DHT22;10390;53.566;9.980;2023-09-12T01:17:21;32.40;1.00
20463;DHT22;10390;53.566;9.980;2023-09-12T01:19:47;32.40;1.00
20463;DHT22;10390;53.566;9.980;2023-09-12T01:22:40;32.40;1.00
20463;DHT22;10390;53.566;9.980;2023-09-12T01:25:18;32.40;1.00
20463;DHT22;10390;53.566;9.980;2023-09-12T01:27:51;32.40;1.00
20463;DHT22;10390;53.566;9.980;2023-09-12T01:30:20;32.40;1.00
20463;DHT22;10390;53.566;9.980;2023-09-12T01:32:47;32.40;1.00
20463;DHT22;10390;53.566;9.980;2023-09-12T01:35:13;32.40;1.00
20463;DHT22;10390;53.566;9.980;2023-09-12T01:37:39;32.40;1.00
20463;DHT22;10390;53.566;9.980;2023-09-12T01:40:06;32.40;1.00
20463;DHT22;10390;53.566;9.980;2023-09-12T01:42:37;32.30;1.00
20463;DHT22;10390;53.566;9.980;2023-09-12T01:45:09;32.30;1.00
20463;DHT22;10390;53.566;9.980;2023-09-12T01:47:35;32.30;1.00
20463;DHT22;10390;53.566;9.980;2023-09-12T01:50:03;32.30;1.00
20463;DHT22;10390;53.566;9.980;2023-09-12T01:52:31;32.30;1.00
20463;DHT22;10390;53.566;9.980;2023-09-12T01:54:57;32.30;1.00
20463;DHT22;10390;53.566;9.980;2023-09-12T01:57:23;32.30;1.00
20463;DHT22;10390;53.566;9.980;2023-09-12T01:59:49;32.30;1.00
20463;DHT22;10390;53.566;9.980;2023-09-12T02:02:15;32.20;1.00
20463;DHT22;10390;53.566;9.980;2023-09-12T02:04:44;32.20;1.00
20463;DHT22;10390;53.566;9.980;2023-09-12T02:07:12;32.20;1.00
20463;DHT22;10390;53.566;9.980;2023-09-12T02:09:37;32.20;1.00
20463;DHT22;10390;53.566;9.980;2023-09-12T02:12:03;32.10;1.00
20463;DHT22;10390;53.566;9.980;2023-09-12T02:14:29;32.10;1.00
20463;DHT22;10390;53.566;9.980;2023-09-12T02:16:54;32.10;1.00
20463;DHT22;10390;53.566;9.980;2023-09-12T02:19:20;32.10;1.00
20463;DHT22;10390;53.566;9.980;2023-09-12T02:21:45;32.10;1.00
20463;DHT22;10390;53.566;9.980;2023-09-12T02:24:11;32.10;1.00
20463;DHT22;10390;53.566;9.980;2023-09-12T02:26:36;32.10;1.00
20463;DHT22;10390;53.566;9.980;2023-09-12T02:29:03;32.10;1.00
20463;DHT22;10390;53.566;9.980;2023-09-12T02:31:32;32.10;1.00
20463;DHT22;10390;53.566;9.980;2023-09-12T02:33:57;32.10;1.00
20463;DHT22;10390;53.566;9.980;2023-09-12T02:36:23;32.00;1.00
20463;DHT22;10390;53.566;9.980;2023-09-12T02:38:48;32.10;1.00
20463;DHT22;10390;53.566;9.980;2023-09-12T02:41:14;32.10;1.00
20463;DHT22;10390;53.566;9.980;2023-09-12T02:43:40;32.10;1.00
20463;DHT22;10390;53.566;9.980;2023-09-12T02:46:05;32.10;1.00
20463;DHT22;10390;53.566;9.980;2023-09-12T02:48:31;32.10;1.00
20463;DHT22;10390;53.566;9.980;2023-09-12T02:50:56;32.00;1.00
20463;DHT22;10390;53.566;9.980;2023-09-12T02:53:22;32.10;1.00
20463;DHT22;10390;53.566;9.980;2023-09-12T02:55:47;32.00;1.00
20463;DHT22;10390;53.566;9.980;2023-09-12T02:58:13;32.00;1.00
20463;DHT22;10390;53.566;9.980;2023-09-12T03:00:39;32.00;1.00
20463;DHT22;10390;53.566;9.980;2023-09-12T03:03:06;32.00;1.00
20463;DHT22;10390;53.566;9.980;2023-09-12T03:05:32;32.00;1.00
20463;DHT22;10390;53.566;9.980;2023-09-12T03:07:57;32.00;1.00
20463;DHT22;10390;53.566;9.980;2023-09-12T03:10:23;32.00;1.00
20463;DHT22;10390;53.566;9.980;2023-09-12T03:12:48;32.00;1.00
20463;DHT22;10390;53.566;9.980;2023-09-12T03:15:14;32.00;1.00
20463;DHT22;10390;53.566;9.980;2023-09-12T03:17:39;32.00;1.00
20463;DHT22;10390;53.566;9.980;2023-09-12T03:20:05;32.00;1.00
20463;DHT22;10390;53.566;9.980;2023-09-12T03:22:34;32.00;1.00
20463;DHT22;10390;53.566;9.980;2023-09-12T03:25:03;32.00;1.00
20463;DHT22;10390;53.566;9.980;2023-09-12T03:27:29;32.00;1.00
20463;DHT22;10390;53.566;9.980;2023-09-12T03:29:55;32.00;1.00
20463;DHT22;10390;53.566;9.980;2023-09-12T03:32:20;32.00;1.00
20463;DHT22;10390;53.566;9.980;2023-09-12T03:34:46;32.00;1.00
20463;DHT22;10390;53.566;9.980;2023-09-12T03:37:11;32.00;1.00
20463;DHT22;10390;53.566;9.980;2023-09-12T03:39:37;32.00;1.00
20463;DHT22;10390;53.566;9.980;2023-09-12T03:42:03;32.00;1.00
20463;DHT22;10390;53.566;9.980;2023-09-12T03:44:28;32.00;1.00
20463;DHT22;10390;53.566;9.980;2023-09-12T03:46:54;32.00;1.00
20463;DHT22;10390;53.566;9.980;2023-09-12T03:49:20;31.90;1.00
20463;DHT22;10390;53.566;9.980;2023-09-12T03:51:45;32.00;1.00
20463;DHT22;10390;53.566;9.980;2023-09-12T03:54:11;31.90;1.00
20463;DHT22;10390;53.566;9.980;2023-09-12T03:56:36;31.90;1.00
20463;DHT22;10390;53.566;9.980;2023-09-12T03:59:02;31.90;1.00
20463;DHT22;10390;53.566;9.980;2023-09-12T04:01:28;31.80;1.00
20463;DHT22;10390;53.566;9.980;2023-09-12T04:03:53;31.90;1.00
20463;DHT22;10390;53.566;9.980;2023-09-12T04:06:19;31.80;1.00
20463;DHT22;10390;53.566;9.980;2023-09-12T04:08:45;31.80;1.00
20463;DHT22;10390;53.566;9.980;2023-09-12T04:11:10;31.80;1.00
20463;DHT22;10390;53.566;9.980;2023-09-12T04:13:36;31.90;1.00
20463;DHT22;10390;53.566;9.980;2023-09-12T04:16:02;31.80;1.00
20463;DHT22;10390;53.566;9.980;2023-09-12T04:18:28;31.80;1.00
20463;DHT22;10390;53.566;9.980;2023-09-12T04:20:53;31.80;1.00
20463;DHT22;10390;53.566;9.980;2023-09-12T04:23:24;31.80;1.00
20463;DHT22;10390;53.566;9.980;2023-09-12T04:25:49;31.80;1.00
20463;DHT22;10390;53.566;9.980;2023-09-12T04:28:15;31.80;1.00
20463;DHT22;10390;53.566;9.980;2023-09-12T04:30:40;31.70;1.00
20463;DHT22;10390;53.566;9.980;2023-09-12T04:33:06;31.70;1.00
20463;DHT22;10390;53.566;9.980;2023-09-12T04:35:35;31.70;1.00
20463;DHT22;10390;53.566;9.980;2023-09-12T04:38:03;31.70;1.00
20463;DHT22;10390;53.566;9.980;2023-09-12T04:40:32;31.70;1.00
20463;DHT22;10390;53.566;9.980;2023-09-12T04:42:58;31.70;1.00
20463;DHT22;10390;53.566;9.980;2023-09-12T04:45:23;31.70;1.00
20463;DHT22;10390;53.566;9.980;2023-09-12T04:47:51;31.70;1.00
20463;DHT22;10390;53.566;9.980;2023-09-12T04:50:17;31.70;1.00
20463;DHT22;10390;53.566;9.980;2023-09-12T04:52:43;31.70;1.00
20463;DHT22;10390;53.566;9.980;2023-09-12T04:55:08;31.70;1.00
20463;DHT22;10390;53.566;9.980;2023-09-12T04:57:34;31.70;1.00
20463;DHT22;10390;53.566;9.980;2023-09-12T05:00:00;31.70;1.00
20463;DHT22;10390;53.566;9.980;2023-09-12T05:02:25;31.70;1.00
20463;DHT22;10390;53.566;9.980;2023-09-12T05:04:51;31.70;1.00
20463;DHT22;10390;53.566;9.980;2023-09-12T05:07:17;31.70;1.00
20463;DHT22;10390;53.566;9.980;2023-09-12T05:09:43;31.70;1.00
20463;DHT22;10390;53.566;9.980;2023-09-12T05:12:08;31.70;1.00
20463;DHT22;10390;53.566;9.980;2023-09-12T05:14:34;31.70;1.00
20463;DHT22;10390;53.566;9.980;2023-09-12T05:17:10;31.70;1.00
20463;DHT22;10390;53.566;9.980;2023-09-12T05:19:41;31.70;1.00
20463;DHT22;10390;53.566;9.980;2023-09-12T05:22:07;31.70;1.00
20463;DHT22;10390;53.566;9.980;2023-09-12T05:24:47;31.70;1.00
20463;DHT22;10390;53.566;9.980;2023-09-12T05:27:13;31.70;1.00
20463;DHT22;10390;53.566;9.980;2023-09-12T05:29:39;31.70;1.00
20463;DHT22;10390;53.566;9.980;2023-09-12T05:32:05;31.60;1.00
20463;DHT22;10390;53.566;9.980;2023-09-12T05:34:31;31.50;1.00
20463;DHT22;10390;53.566;9.980;2023-09-12T05:36:57;31.50;1.00
20463;DHT22;10390;53.566;9.980;2023-09-12T05:39:22;31.50;1.00
20463;DHT22;10390;53.566;9.980;2023-09-12T05:41:49;31.50;1.00
20463;DHT22;10390;53.566;9.980;2023-09-12T05:44:14;31.50;1.00
20463;DHT22;10390;53.566;9.980;2023-09-12T05:46:46;31.60;1.00
20463;DHT22;10390;53.566;9.980;2023-09-12T05:49:13;31.50;1.00
20463;DHT22;10390;53.566;9.980;2023-09-12T05:51:38;31.50;1.00
20463;DHT22;10390;53.566;9.980;2023-09-12T05:54:04;31.50;1.00
20463;DHT22;10390;53.566;9.980;2023-09-12T05:56:29;31.50;1.00
20463;DHT22;10390;53.566;9.980;2023-09-12T05:58:55;31.50;1.00
20463;DHT22;10390;53.566;9.980;2023-09-12T06:01:21;31.40;1.00
20463;DHT22;10390;53.566;9.980;2023-09-12T06:03:46;31.40;1.00
20463;DHT22;10390;53.566;9.980;2023-09-12T06:06:12;31.40;1.00
20463;DHT22;10390;53.566;9.980;2023-09-12T06:08:38;31.40;1.00
20463;DHT22;10390;53.566;9.980;2023-09-12T06:11:04;31.40;1.00
20463;DHT22;10390;53.566;9.980;2023-09-12T06:13:29;31.40;1.00
20463;DHT22;10390;53.566;9.980;2023-09-12T06:15:55;31.30;1.00
20463;DHT22;10390;53.566;9.980;2023-09-12T06:18:21;31.40;1.00
20463;DHT22;10390;53.566;9.980;2023-09-12T06:20:47;31.30;1.00
20463;DHT22;10390;53.566;9.980;2023-09-12T06:23:12;31.30;1.00
20463;DHT22;10390;53.566;9.980;2023-09-12T06:25:38;31.30;1.00
20463;DHT22;10390;53.566;9.980;2023-09-12T06:28:05;31.30;1.00
20463;DHT22;10390;53.566;9.980;2023-09-12T06:30:30;31.30;1.00
20463;DHT22;10390;53.566;9.980;2023-09-12T06:32:56;31.30;1.00
20463;DHT22;10390;53.566;9.980;2023-09-12T06:35:22;31.30;1.00
20463;DHT22;10390;53.566;9.980;2023-09-12T06:37:47;31.30;1.00
20463;DHT22;10390;53.566;9.980;2023-09-12T06:40:13;31.20;1.00
20463;DHT22;10390;53.566;9.980;2023-09-12T06:42:38;31.30;1.00
20463;DHT22;10390;53.566;9.980;2023-09-12T06:45:04;31.20;1.00
20463;DHT22;10390;53.566;9.980;2023-09-12T06:47:30;31.20;1.00
20463;DHT22;10390;53.566;9.980;2023-09-12T06:49:56;31.30;1.00
20463;DHT22;10390;53.566;9.980;2023-09-12T06:52:22;31.20;1.00
20463;DHT22;10390;53.566;9.980;2023-09-12T06:54:47;31.20;1.00
20463;DHT22;10390;53.566;9.980;2023-09-12T06:57:13;31.20;1.00
20463;DHT22;10390;53.566;9.980;2023-09-12T06:59:39;31.20;1.00
20463;DHT22;10390;53.566;9.980;2023-09-12T07:02:05;31.20;1.00
20463;DHT22;10390;53.566;9.980;2023-09-12T07:04:30;31.20;1.00
20463;DHT22;10390;53.566;9.980;2023-09-12T07:06:56;31.20;1.00
20463;DHT22;10390;53.566;9.980;2023-09-12T07:09:21;31.20;1.00
20463;DHT22;10390;53.566;9.980;2023-09-12T07:11:48;31.20;1.00
20463;DHT22;10390;53.566;9.980;2023-09-12T07:14:14;31.20;1.00
20463;DHT22;10390;53.566;9.980;2023-09-12T07:16:40;31.20;1.00
20463;DHT22;10390;53.566;9.980;2023-09-12T07:19:06;31.10;1.00
20463;DHT22;10390;53.566;9.980;2023-09-12T07:21:35;31.10;1.00
20463;DHT22;10390;53.566;9.980;2023-09-12T07:24:04;31.10;1.00
20463;DHT22;10390;53.566;9.980;2023-09-12T07:26:31;31.20;1.00
20463;DHT22;10390;53.566;9.980;2023-09-12T07:28:56;31.20;1.00
20463;DHT22;10390;53.566;9.980;2023-09-12T07:31:22;31.10;1.00
20463;DHT22;10390;53.566;9.980;2023-09-12T07:33:47;31.10;1.00
20463;DHT22;10390;53.566;9.980;2023-09-12T07:36:13;31.10;1.00
20463;DHT22;10390;53.566;9.980;2023-09-12T07:38:39;31.10;1.00
20463;DHT22;10390;53.566;9.980;2023-09-12T07:41:05;31.10;1.00
20463;DHT22;10390;53.566;9.980;2023-09-12T07:43:31;31.10;1.00
20463;DHT22;10390;53.566;9.980;2023-09-12T07:45:57;31.10;1.00
20463;DHT22;10390;53.566;9.980;2023-09-12T07:48:23;31.10;1.00
20463;DHT22;10390;53.566;9.980;2023-09-12T07:50:48;31.10;1.00
20463;DHT22;10390;53.566;9.980;2023-09-12T07:53:14;31.10;1.00
20463;DHT22;10390;53.566;9.980;2023-09-12T07:55:40;31.10;1.00
20463;DHT22;10390;53.566;9.980;2023-09-12T07:58:16;31.10;1.00
20463;DHT22;10390;53.566;9.980;2023-09-12T08:00:44;31.10;1.00
20463;DHT22;10390;53.566;9.980;2023-09-12T08:03:09;31.10;1.00
20463;DHT22;10390;53.566;9.980;2023-09-12T08:05:35;31.10;1.00
20463;DHT22;10390;53.566;9.980;2023-09-12T08:08:01;31.10;1.00
20463;DHT22;10390;53.566;9.980;2023-09-12T08:10:27;31.10;1.00
20463;DHT22;10390;53.566;9.980;2023-09-12T08:12:52;31.10;1.00
20463;DHT22;10390;53.566;9.980;2023-09-12T08:15:18;31.10;1.00
20463;DHT22;10390;53.566;9.980;2023-09-12T08:17:44;31.10;1.00
20463;DHT22;10390;53.566;9.980;2023-09-12T08:20:10;31.10;1.00
20463;DHT22;10390;53.566;9.980;2023-09-12T08:22:37;31.10;1.00
20463;DHT22;10390;53.566;9.980;2023-09-12T08:25:03;31.10;1.00
20463;DHT22;10390;53.566;9.980;2023-09-12T08:27:29;31.10;1.00
20463;DHT22;10390;53.566;9.980;2023-09-12T08:29:54;31.00;1.00
20463;DHT22;10390;53.566;9.980;2023-09-12T08:32:20;31.10;1.00
20463;DHT22;10390;53.566;9.980;2023-09-12T08:34:45;31.10;1.00
20463;DHT22;10390;53.566;9.980;2023-09-12T08:37:11;31.00;1.00
20463;DHT22;10390;53.566;9.980;2023-09-12T08:39:42;31.00;1.00
20463;DHT22;10390;53.566;9.980;2023-09-12T08:42:13;31.10;1.00
20463;DHT22;10390;53.566;9.980;2023-09-12T08:44:42;31.00;1.00
20463;DHT22;10390;53.566;9.980;2023-09-12T08:47:09;31.10;1.00
20463;DHT22;10390;53.566;9.980;2023-09-12T08:49:36;31.10;1.00
20463;DHT22;10390;53.566;9.980;2023-09-12T08:52:06;31.10;1.00
20463;DHT22;10390;53.566;9.980;2023-09-12T08:54:33;31.10;1.00
20463;DHT22;10390;53.566;9.980;2023-09-12T08:57:03;31.10;1.00
20463;DHT22;10390;53.566;9.980;2023-09-12T08:59:34;31.10;1.00
20463;DHT22;10390;53.566;9.980;2023-09-12T09:02:00;31.10;1.00
20463;DHT22;10390;53.566;9.980;2023-09-12T09:04:29;31.10;1.00
20463;DHT22;10390;53.566;9.980;2023-09-12T09:06:57;31.10;1.00
20463;DHT22;10390;53.566;9.980;2023-09-12T09:09:23;31.10;1.00
20463;DHT22;10390;53.566;9.980;2023-09-12T09:11:52;31.10;1.00
20463;DHT22;10390;53.566;9.980;2023-09-12T09:14:17;31.10;1.00
20463;DHT22;10390;53.566;9.980;2023-09-12T09:16:43;31.10;1.00
20463;DHT22;10390;53.566;9.980;2023-09-12T09:19:09;31.10;1.00
20463;DHT22;10390;53.566;9.980;2023-09-12T09:21:38;31.10;1.00
20463;DHT22;10390;53.566;9.980;2023-09-12T09:24:11;31.10;1.00
20463;DHT22;10390;53.566;9.980;2023-09-12T09:26:44;31.10;1.00
20463;DHT22;10390;53.566;9.980;2023-09-12T09:29:20;31.10;1.00
20463;DHT22;10390;53.566;9.980;2023-09-12T09:31:50;31.10;1.00
20463;DHT22;10390;53.566;9.980;2023-09-12T09:34:20;31.10;1.00
20463;DHT22;10390;53.566;9.980;2023-09-12T09:36:51;31.20;1.00
20463;DHT22;10390;53.566;9.980;2023-09-12T09:39:22;31.10;1.00
20463;DHT22;10390;53.566;9.980;2023-09-12T09:41:57;31.20;1.00
20463;DHT22;10390;53.566;9.980;2023-09-12T09:44:25;31.20;1.00
20463;DHT22;10390;53.566;9.980;2023-09-12T09:47:02;31.20;1.00
20463;DHT22;10390;53.566;9.980;2023-09-12T09:49:31;31.20;1.00
20463;DHT22;10390;53.566;9.980;2023-09-12T09:51:57;31.20;1.00
20463;DHT22;10390;53.566;9.980;2023-09-12T09:54:25;31.20;1.00
20463;DHT22;10390;53.566;9.980;2023-09-12T09:56:54;31.20;1.00
20463;DHT22;10390;53.566;9.980;2023-09-12T09:59:29;31.20;1.00
20463;DHT22;10390;53.566;9.980;2023-09-12T10:01:59;31.20;1.00
20463;DHT22;10390;53.566;9.980;2023-09-12T10:04:28;31.30;1.00
20463;DHT22;10390;53.566;9.980;2023-09-12T10:06:56;31.20;1.00
20463;DHT22;10390;53.566;9.980;2023-09-12T10:09:23;31.20;1.00
20463;DHT22;10390;53.566;9.980;2023-09-12T10:11:51;31.20;1.00
20463;DHT22;10390;53.566;9.980;2023-09-12T10:14:19;31.20;1.00
20463;DHT22;10390;53.566;9.980;2023-09-12T10:16:47;31.20;1.00
20463;DHT22;10390;53.566;9.980;2023-09-12T10:19:22;31.20;1.00
20463;DHT22;10390;53.566;9.980;2023-09-12T10:22:09;31.30;1.00
20463;DHT22;10390;53.566;9.980;2023-09-12T10:24:39;31.20;1.00
20463;DHT22;10390;53.566;9.980;2023-09-12T10:27:05;31.30;1.00
20463;DHT22;10390;53.566;9.980;2023-09-12T10:29:31;31.30;1.00
20463;DHT22;10390;53.566;9.980;2023-09-12T10:31:57;31.30;1.00
20463;DHT22;10390;53.566;9.980;2023-09-12T10:34:30;31.30;1.00
20463;DHT22;10390;53.566;9.980;2023-09-12T10:36:58;31.30;1.00
20463;DHT22;10390;53.566;9.980;2023-09-12T10:39:31;31.30;1.00
20463;DHT22;10390;53.566;9.980;2023-09-12T10:41:58;31.30;1.00
20463;DHT22;10390;53.566;9.980;2023-09-12T10:44:25;31.30;1.00
20463;DHT22;10390;53.566;9.980;2023-09-12T10:46:52;31.30;1.00
20463;DHT22;10390;53.566;9.980;2023-09-12T10:49:19;31.40;1.00
20463;DHT22;10390;53.566;9.980;2023-09-12T10:51:45;31.30;1.00
20463;DHT22;10390;53.566;9.980;2023-09-12T10:54:24;31.30;1.00
20463;DHT22;10390;53.566;9.980;2023-09-12T10:57:13;31.30;1.00
20463;DHT22;10390;53.566;9.980;2023-09-12T11:02:45;31.30;1.00
20463;DHT22;10390;53.566;9.980;2023-09-12T11:07:59;31.40;1.00
20463;DHT22;10390;53.566;9.980;2023-09-12T11:10:26;31.30;1.00
20463;DHT22;10390;53.566;9.980;2023-09-12T11:12:53;31.30;1.00
20463;DHT22;10390;53.566;9.980;2023-09-12T11:15:21;31.30;1.00
20463;DHT22;10390;53.566;9.980;2023-09-12T11:17:48;31.30;1.00
20463;DHT22;10390;53.566;9.980;2023-09-12T11:20:16;31.30;1.00
20463;DHT22;10390;53.566;9.980;2023-09-12T11:22:42;31.30;1.00
20463;DHT22;10390;53.566;9.980;2023-09-12T11:25:26;31.30;1.00
20463;DHT22;10390;53.566;9.980;2023-09-12T11:30:23;31.30;1.00
20463;DHT22;10390;53.566;9.980;2023-09-12T11:32:51;31.30;1.00
20463;DHT22;10390;53.566;9.980;2023-09-12T11:35:22;31.30;1.00
20463;DHT22;10390;53.566;9.980;2023-09-12T11:37:49;31.30;1.00
20463;DHT22;10390;53.566;9.980;2023-09-12T11:40:17;31.30;1.00
20463;DHT22;10390;53.566;9.980;2023-09-12T11:42:43;31.30;1.00
20463;DHT22;10390;53.566;9.980;2023-09-12T11:45:09;31.30;1.00
20463;DHT22;10390;53.566;9.980;2023-09-12T11:47:42;31.30;1.00
20463;DHT22;10390;53.566;9.980;2023-09-12T11:53:05;31.30;1.00
20463;DHT22;10390;53.566;9.980;2023-09-12T11:55:36;31.30;1.00
20463;DHT22;10390;53.566;9.980;2023-09-12T11:58:02;31.30;1.00
20463;DHT22;10390;53.566;9.980;2023-09-12T12:00:28;31.30;1.00
20463;DHT22;10390;53.566;9.980;2023-09-12T12:02:55;31.30;1.00
20463;DHT22;10390;53.566;9.980;2023-09-12T12:05:21;31.30;1.00
20463;DHT22;10390;53.566;9.980;2023-09-12T12:07:48;31.30;1.00
20463;DHT22;10390;53.566;9.980;2023-09-12T12:10:16;31.30;1.00
20463;DHT22;10390;53.566;9.980;2023-09-12T12:12:43;31.20;1.00
20463;DHT22;10390;53.566;9.980;2023-09-12T12:15:10;31.20;1.00
20463;DHT22;10390;53.566;9.980;2023-09-12T12:17:41;31.20;1.00
20463;DHT22;10390;53.566;9.980;2023-09-12T12:20:08;31.30;1.00
20463;DHT22;10390;53.566;9.980;2023-09-12T12:22:39;31.20;1.00
20463;DHT22;10390;53.566;9.980;2023-09-12T12:25:06;31.20;1.00
20463;DHT22;10390;53.566;9.980;2023-09-12T12:27:34;31.20;1.00
20463;DHT22;10390;53.566;9.980;2023-09-12T12:30:00;31.30;1.00
20463;DHT22;10390;53.566;9.980;2023-09-12T12:32:26;31.30;1.00
20463;DHT22;10390;53.566;9.980;2023-09-12T12:34:51;31.30;1.00
20463;DHT22;10390;53.566;9.980;2023-09-12T12:37:17;31.20;1.00
20463;DHT22;10390;53.566;9.980;2023-09-12T12:39:43;31.20;1.00
20463;DHT22;10390;53.566;9.980;2023-09-12T12:42:09;31.20;1.00
20463;DHT22;10390;53.566;9.980;2023-09-12T12:44:35;31.20;1.00
20463;DHT22;10390;53.566;9.980;2023-09-12T12:47:04;31.20;1.00
20463;DHT22;10390;53.566;9.980;2023-09-12T12:49:36;31.20;1.00
20463;DHT22;10390;53.566;9.980;2023-09-12T12:52:03;31.20;1.00
20463;DHT22;10390;53.566;9.980;2023-09-12T12:54:32;31.20;1.00
20463;DHT22;10390;53.566;9.980;2023-09-12T12:56:59;31.20;1.00
20463;DHT22;10390;53.566;9.980;2023-09-12T12:59:25;31.20;1.00
20463;DHT22;10390;53.566;9.980;2023-09-12T13:01:51;31.20;1.00
20463;DHT22;10390;53.566;9.980;2023-09-12T13:04:16;31.20;1.00
20463;DHT22;10390;53.566;9.980;2023-09-12T13:06:42;31.20;1.00
20463;DHT22;10390;53.566;9.980;2023-09-12T13:09:08;31.20;1.00
20463;DHT22;10390;53.566;9.980;2023-09-12T13:11:34;31.20;1.00
20463;DHT22;10390;53.566;9.980;2023-09-12T13:14:01;31.20;1.00
20463;DHT22;10390;53.566;9.980;2023-09-12T13:16:27;31.20;1.00
20463;DHT22;10390;53.566;9.980;2023-09-12T13:18:53;31.20;1.00
20463;DHT22;10390;53.566;9.980;2023-09-12T13:21:19;31.10;1.00
20463;DHT22;10390;53.566;9.980;2023-09-12T13:23:44;31.20;1.00
20463;DHT22;10390;53.566;9.980;2023-09-12T13:26:10;31.10;1.00
20463;DHT22;10390;53.566;9.980;2023-09-12T13:28:36;31.20;1.00
20463;DHT22;10390;53.566;9.980;2023-09-12T13:31:02;31.20;1.00
20463;DHT22;10390;53.566;9.980;2023-09-12T13:33:28;31.10;1.00
20463;DHT22;10390;53.566;9.980;2023-09-12T13:35:54;31.10;1.00
20463;DHT22;10390;53.566;9.980;2023-09-12T13:38:20;31.20;1.00
20463;DHT22;10390;53.566;9.980;2023-09-12T13:40:47;31.10;1.00
20463;DHT22;10390;53.566;9.980;2023-09-12T13:43:12;31.20;1.00
20463;DHT22;10390;53.566;9.980;2023-09-12T13:45:39;31.10;1.00
20463;DHT22;10390;53.566;9.980;2023-09-12T13:48:05;31.10;1.00
20463;DHT22;10390;53.566;9.980;2023-09-12T13:50:31;31.10;1.00
20463;DHT22;10390;53.566;9.980;2023-09-12T13:53:02;31.10;1.00
20463;DHT22;10390;53.566;9.980;2023-09-12T13:55:34;31.10;1.00
20463;DHT22;10390;53.566;9.980;2023-09-12T13:58:05;31.10;1.00
20463;DHT22;10390;53.566;9.980;2023-09-12T14:00:31;31.10;1.00
20463;DHT22;10390;53.566;9.980;2023-09-12T14:02:57;31.00;1.00
20463;DHT22;10390;53.566;9.980;2023-09-12T14:05:23;31.00;1.00
20463;DHT22;10390;53.566;9.980;2023-09-12T14:07:50;31.00;1.00
20463;DHT22;10390;53.566;9.980;2023-09-12T14:10:16;31.00;1.00
20463;DHT22;10390;53.566;9.980;2023-09-12T14:12:42;31.00;1.00
20463;DHT22;10390;53.566;9.980;2023-09-12T14:15:08;31.00;1.00
20463;DHT22;10390;53.566;9.980;2023-09-12T14:17:34;31.00;1.00
20463;DHT22;10390;53.566;9.980;2023-09-12T14:20:00;31.00;1.00
20463;DHT22;10390;53.566;9.980;2023-09-12T14:22:25;31.00;1.00
20463;DHT22;10390;53.566;9.980;2023-09-12T14:24:51;31.00;1.00
20463;DHT22;10390;53.566;9.980;2023-09-12T14:27:16;31.00;1.00
20463;DHT22;10390;53.566;9.980;2023-09-12T14:29:42;31.00;1.00
20463;DHT22;10390;53.566;9.980;2023-09-12T14:32:11;31.00;1.00
20463;DHT22;10390;53.566;9.980;2023-09-12T14:34:37;31.00;1.00
20463;DHT22;10390;53.566;9.980;2023-09-12T14:37:03;31.00;1.00
20463;DHT22;10390;53.566;9.980;2023-09-12T14:39:29;31.00;1.00
20463;DHT22;10390;53.566;9.980;2023-09-12T14:41:54;31.00;1.00
20463;DHT22;10390;53.566;9.980;2023-09-12T14:44:22;31.00;1.00
20463;DHT22;10390;53.566;9.980;2023-09-12T14:46:47;31.00;1.00
20463;DHT22;10390;53.566;9.980;2023-09-12T14:49:13;31.00;1.00
20463;DHT22;10390;53.566;9.980;2023-09-12T14:51:38;31.00;1.00
20463;DHT22;10390;53.566;9.980;2023-09-12T14:54:04;31.00;1.00
20463;DHT22;10390;53.566;9.980;2023-09-12T14:56:31;31.10;1.00
20463;DHT22;10390;53.566;9.980;2023-09-12T14:58:57;31.00;1.00
20463;DHT22;10390;53.566;9.980;2023-09-12T15:01:22;31.00;1.00
20463;DHT22;10390;53.566;9.980;2023-09-12T15:03:50;31.10;1.00
20463;DHT22;10390;53.566;9.980;2023-09-12T15:06:15;31.10;1.00
20463;DHT22;10390;53.566;9.980;2023-09-12T15:08:41;31.10;1.00
20463;DHT22;10390;53.566;9.980;2023-09-12T15:11:07;31.10;1.00
20463;DHT22;10390;53.566;9.980;2023-09-12T15:13:32;31.10;1.00
20463;DHT22;10390;53.566;9.980;2023-09-12T15:15:58;31.10;1.00
20463;DHT22;10390;53.566;9.980;2023-09-12T15:18:23;31.10;1.00
20463;DHT22;10390;53.566;9.980;2023-09-12T15:20:51;31.10;1.00
20463;DHT22;10390;53.566;9.980;2023-09-12T15:23:17;31.20;1.00
20463;DHT22;10390;53.566;9.980;2023-09-12T15:25:43;31.20;1.00
20463;DHT22;10390;53.566;9.980;2023-09-12T15:28:08;31.20;1.00
20463;DHT22;10390;53.566;9.980;2023-09-12T15:30:34;31.20;1.00
20463;DHT22;10390;53.566;9.980;2023-09-12T15:32:59;31.20;1.00
20463;DHT22;10390;53.566;9.980;2023-09-12T15:35:25;31.20;1.00
20463;DHT22;10390;53.566;9.980;2023-09-12T15:37:51;31.20;1.00
20463;DHT22;10390;53.566;9.980;2023-09-12T15:40:17;31.20;1.00
20463;DHT22;10390;53.566;9.980;2023-09-12T15:42:42;31.20;1.00
20463;DHT22;10390;53.566;9.980;2023-09-12T15:45:09;31.20;1.00
20463;DHT22;10390;53.566;9.980;2023-09-12T15:47:35;31.20;1.00
20463;DHT22;10390;53.566;9.980;2023-09-12T15:50:01;31.20;1.00
20463;DHT22;10390;53.566;9.980;2023-09-12T15:52:27;31.20;1.00
20463;DHT22;10390;53.566;9.980;2023-09-12T15:54:53;31.20;1.00